Time;durP1;ratioP1;P1;durP2;ratioP2;P2;SDS_P1;SDS_P2;PMS_P1;PMS_P2;Temp;Humidity;BMP_temperature;BMP_pressure;BME280_temperature;BME280_humidity;BME280_pressure;Samples;Min_cycle;Max_cycle;Signal;HPM_P1;HPM_P2
2023/12/17 00:04:22;;;;;;;9.10;4.00;;;10.90;96.10;;;;;;20737030;28;20852;-40
2023/12/17 00:14:23;;;;;;;7.97;3.50;;;11.00;90.40;;;;;;20746266;28;20064;-40
2023/12/17 00:24:23;;;;;;;9.50;3.75;;;10.90;95.70;;;;;;20761245;28;20037;-40
2023/12/17 00:34:24;;;;;;;8.30;3.58;;;11.00;90.40;;;;;;20756482;28;20063;-40
2023/12/17 00:44:24;;;;;;;5.90;3.78;;;11.10;80.90;;;;;;20758170;28;20033;-41
2023/12/17 00:54:25;;;;;;;6.70;3.75;;;11.00;80.60;;;;;;20752526;28;20045;-40
2023/12/17 01:04:25;;;;;;;6.38;3.28;;;11.00;75.00;;;;;;20757305;28;20146;-40
2023/12/17 01:14:28;;;;;;;7.60;3.60;;;11.00;74.10;;;;;;20749875;28;20072;-40
2023/12/17 01:24:28;;;;;;;8.00;3.75;;;10.90;82.10;;;;;;20752658;28;20124;-40
2023/12/17 01:34:29;;;;;;;8.02;4.05;;;11.00;75.90;;;;;;20752628;28;20082;-40
2023/12/17 01:44:29;;;;;;;9.68;4.30;;;10.90;71.00;;;;;;20752552;28;20041;-40
2023/12/17 01:54:30;;;;;;;5.20;3.58;;;10.90;75.40;;;;;;20751225;28;20103;-40
2023/12/17 02:04:31;;;;;;;9.75;4.18;;;10.80;79.30;;;;;;20753813;28;20045;-40
2023/12/17 02:14:31;;;;;;;6.65;3.90;;;10.90;70.70;;;;;;20746399;28;20467;-40
2023/12/17 02:24:33;;;;;;;6.05;3.17;;;10.70;80.00;;;;;;20750262;28;20049;-40
2023/12/17 02:34:33;;;;;;;7.10;3.22;;;10.70;72.80;;;;;;20749615;28;20049;-40
2023/12/17 02:44:34;;;;;;;7.03;3.35;;;10.80;53.50;;;;;;20744846;28;20087;-40
2023/12/17 02:54:35;;;;;;;6.10;2.63;;;10.90;32.80;;;;;;20744943;28;20045;-40
2023/12/17 03:04:36;;;;;;;4.78;2.55;;;10.90;29.80;;;;;;20744063;28;20081;-40
2023/12/17 03:14:36;;;;;;;8.10;2.60;;;10.90;37.90;;;;;;20740547;28;20094;-40
2023/12/17 03:24:37;;;;;;;8.25;2.80;;;10.90;33.80;;;;;;20743639;28;20129;-40
2023/12/17 03:45:21;;;;;;;;;;;;;;;;;;;;;
2023/12/17 03:55:40;;;;;;;8.07;3.78;;;10.70;40.20;;;;;;20824515;28;20087;-87
2023/12/17 04:06:07;;;;;;;13.38;4.55;;;10.70;50.30;;;;;;20819653;28;20196;-88
2023/12/17 04:16:14;;;;;;;10.63;4.80;;;10.70;57.50;;;;;;20812492;28;20052;-86
2023/12/17 04:26:21;;;;;;;10.03;4.30;;;10.60;54.20;;;;;;20814425;28;20110;-87
2023/12/17 04:36:31;;;;;;;13.50;5.63;;;10.60;61.40;;;;;;20835916;28;20466;-88
2023/12/17 04:46:40;;;;;;;11.57;5.35;;;10.70;59.90;;;;;;20844189;28;20200;-88
2023/12/17 04:57:11;;;;;;;12.52;6.20;;;10.60;54.40;;;;;;20791242;28;20591;-87
2023/12/17 05:07:22;;;;;;;10.23;4.78;;;10.60;59.00;;;;;;20883236;28;22446;-88
2023/12/17 05:17:32;;;;;;;12.98;5.85;;;10.50;49.80;;;;;;20892008;28;20119;-88
2023/12/17 05:27:48;;;;;;;14.80;7.65;;;10.50;51.90;;;;;;20867127;28;20069;-87
2023/12/17 05:37:57;;;;;;;17.23;6.85;;;10.50;63.70;;;;;;20883917;28;20066;-87
2023/12/17 05:48:14;;;;;;;20.27;5.70;;;10.40;76.90;;;;;;20887962;28;20056;-87
2023/12/17 05:58:23;;;;;;;18.30;7.93;;;10.40;89.60;;;;;;20907477;28;20323;-88
2023/12/17 06:08:37;;;;;;;19.65;7.50;;;10.40;94.40;;;;;;20862474;28;20028;-87
2023/12/17 06:18:42;;;;;;;16.25;7.70;;;10.50;97.30;;;;;;20844305;28;20631;-89
2023/12/17 06:28:48;;;;;;;21.10;8.93;;;10.40;99.90;;;;;;20618301;28;20164;-88
2023/12/17 06:39:29;;;;;;;18.33;10.18;;;10.40;99.90;;;;;;20777546;28;20570;-89
2023/12/17 06:49:43;;;;;;;17.52;9.80;;;10.40;97.00;;;;;;20777523;28;20053;-88
2023/12/17 06:59:53;;;;;;;26.63;12.48;;;10.30;96.10;;;;;;20985657;28;20044;-88
2023/12/17 07:09:59;;;;;;;31.33;16.23;;;10.30;97.30;;;;;;20970092;28;20028;-88
2023/12/17 07:20:05;;;;;;;34.97;16.77;;;10.30;90.00;;;;;;20912645;28;20052;-88
2023/12/17 07:30:09;;;;;;;32.10;15.93;;;10.30;91.00;;;;;;20924128;28;20620;-87
2023/12/17 07:40:10;;;;;;;26.13;14.02;;;10.30;85.00;;;;;;20917821;28;21888;-88
2023/12/17 07:50:13;;;;;;;25.83;13.00;;;10.20;91.40;;;;;;20884456;28;20049;-89
2023/12/17 08:00:18;;;;;;;29.45;14.02;;;10.10;90.70;;;;;;20847673;28;20108;-88
2023/12/17 08:10:30;;;;;;;20.50;10.70;;;10.10;91.80;;;;;;20884023;28;20071;-87
2023/12/17 08:20:36;;;;;;;18.17;10.75;;;9.90;92.60;;;;;;20889894;28;20047;-88
2023/12/17 08:31:09;;;;;;;17.90;10.85;;;10.00;87.20;;;;;;20849057;28;20057;-89
2023/12/17 08:41:11;;;;;;;17.95;10.07;;;9.90;80.90;;;;;;20899323;28;20116;-89
2023/12/17 08:51:33;;;;;;;21.00;11.98;;;9.80;73.60;;;;;;20884919;28;20044;-88
2023/12/17 09:01:44;;;;;;;20.55;11.93;;;9.70;84.10;;;;;;20906522;28;20055;-90
2023/12/17 09:12:12;;;;;;;24.45;12.30;;;9.60;81.90;;;;;;20879144;28;20063;-87
2023/12/17 09:22:13;;;;;;;29.40;14.63;;;9.50;70.20;;;;;;20930453;28;20051;-86
2023/12/17 09:32:17;;;;;;;30.40;15.35;;;9.60;79.30;;;;;;20873718;28;20032;-87
2023/12/17 09:42:21;;;;;;;27.15;13.38;;;9.50;82.40;;;;;;20896817;28;20492;-88
2023/12/17 09:52:28;;;;;;;34.30;15.95;;;9.40;72.80;;;;;;20931737;28;20440;-87
2023/12/17 10:02:37;;;;;;;28.23;13.83;;;9.40;78.00;;;;;;20935029;28;20744;-86
2023/12/17 10:12:38;;;;;;;31.98;16.35;;;9.40;68.30;;;;;;20934510;28;20136;-87
2023/12/17 10:23:03;;;;;;;48.42;23.67;;;9.40;60.60;;;;;;20872637;28;20048;-87
2023/12/17 10:33:11;;;;;;;47.67;22.55;;;9.40;60.50;;;;;;20934121;28;20072;-88
2023/12/17 10:43:12;;;;;;;52.22;25.25;;;9.30;63.60;;;;;;20968070;28;20040;-91
2023/12/17 10:53:25;;;;;;;47.17;23.17;;;9.20;60.70;;;;;;20906880;28;20139;-89
2023/12/17 11:03:28;;;;;;;29.75;16.63;;;9.20;64.00;;;;;;20861236;28;20052;-89
2023/12/17 11:13:36;;;;;;;41.17;21.27;;;9.30;51.00;;;;;;20939188;28;20043;-88
2023/12/17 11:23:49;;;;;;;34.13;18.88;;;9.50;39.30;;;;;;20943431;28;20045;-89
2023/12/17 11:33:54;;;;;;;33.47;16.08;;;9.50;34.90;;;;;;20937520;28;20041;-88
2023/12/17 11:43:57;;;;;;;33.70;16.10;;;9.50;32.40;;;;;;20936170;28;20044;-89
2023/12/17 11:53:59;;;;;;;30.77;15.13;;;9.60;31.40;;;;;;20940248;28;20568;-89
2023/12/17 12:04:00;;;;;;;28.67;14.15;;;10.00;25.60;;;;;;20928874;28;20052;-89
2023/12/17 12:14:05;;;;;;;27.30;13.65;;;10.70;5.00;;;;;;20951306;28;20513;-90
2023/12/17 12:24:41;;;;;;;23.83;11.35;;;11.00;1.00;;;;;;20922987;28;20483;-88
2023/12/17 12:34:45;;;;;;;23.23;10.15;;;11.40;1.00;;;;;;20923590;28;20708;-88
2023/12/17 12:44:45;;;;;;;22.75;7.78;;;11.80;1.00;;;;;;20940965;28;20084;-88
2023/12/17 12:54:49;;;;;;;21.95;6.82;;;11.80;1.00;;;;;;20899127;28;20502;-86
2023/12/17 13:04:49;;;;;;;20.92;7.00;;;11.70;1.00;;;;;;20916591;28;20297;-86
2023/12/17 13:14:53;;;;;;;16.58;6.28;;;11.40;1.00;;;;;;20905014;28;20053;-89
2023/12/17 13:24:57;;;;;;;17.90;6.28;;;11.10;1.00;;;;;;20898715;28;20127;-87
2023/12/17 13:34:58;;;;;;;18.33;6.57;;;10.70;1.00;;;;;;20921637;28;20102;-87
2023/12/17 13:45:02;;;;;;;15.07;5.10;;;10.70;1.00;;;;;;20926268;28;20056;-90
2023/12/17 13:55:05;;;;;;;14.70;4.80;;;10.50;1.00;;;;;;20961845;28;20547;-88
2023/12/17 14:05:21;;;;;;;15.63;5.07;;;10.50;1.00;;;;;;20922809;28;20635;-88
2023/12/17 14:15:40;;;;;;;16.70;5.22;;;10.30;1.00;;;;;;20879998;28;20052;-89
2023/12/17 14:25:41;;;;;;;14.18;5.35;;;10.30;1.00;;;;;;20910420;28;20041;-91
2023/12/17 14:35:44;;;;;;;11.95;4.70;;;10.20;1.00;;;;;;20852744;28;20075;-88
2023/12/17 14:46:03;;;;;;;;;;;;;;;;;;;;;
2023/12/17 14:56:18;;;;;;;14.55;5.07;;;10.00;1.00;;;;;;20930121;28;20115;-88
2023/12/17 15:06:22;;;;;;;15.07;6.13;;;9.70;1.00;;;;;;20904025;28;20057;-89
2023/12/17 15:16:45;;;;;;;15.32;5.78;;;9.60;1.00;;;;;;20895047;28;20058;-88
2023/12/17 15:27:02;;;;;;;21.10;6.90;;;9.40;1.00;;;;;;20884099;28;20076;-88
2023/12/17 15:37:46;;;;;;;13.37;6.10;;;9.30;1.00;;;;;;20843323;28;20140;-89
2023/12/17 15:47:55;;;;;;;16.50;6.97;;;9.20;1.00;;;;;;20905113;28;20817;-88
2023/12/17 15:58:06;;;;;;;16.25;7.00;;;9.00;1.00;;;;;;20833319;28;20045;-88
2023/12/17 16:08:09;;;;;;;21.05;8.85;;;8.90;1.00;;;;;;20909572;28;20619;-88
2023/12/17 16:18:18;;;;;;;20.10;8.20;;;8.70;1.00;;;;;;20920601;28;20068;-89
2023/12/17 16:28:24;;;;;;;21.70;8.38;;;8.70;1.00;;;;;;20921250;28;20066;-89
2023/12/17 16:38:31;;;;;;;20.77;8.90;;;8.70;1.00;;;;;;20909768;28;20048;-89
2023/12/17 16:48:41;;;;;;;16.40;7.50;;;8.70;1.00;;;;;;20913172;28;20315;-89
2023/12/17 16:58:44;;;;;;;18.38;7.53;;;8.60;1.00;;;;;;20893635;28;20075;-89
2023/12/17 17:08:48;;;;;;;16.35;8.60;;;8.60;1.00;;;;;;20925872;28;20575;-87
2023/12/17 17:18:58;;;;;;;23.33;8.68;;;8.50;1.00;;;;;;20941647;28;20041;-93
2023/12/17 17:28:59;;;;;;;16.63;8.18;;;8.50;1.00;;;;;;21006149;28;20033;-87
2023/12/17 17:39:00;;;;;;;20.45;9.43;;;8.40;1.00;;;;;;21063519;28;20059;-86
2023/12/17 17:49:07;;;;;;;16.40;8.75;;;8.30;1.00;;;;;;20944232;28;20060;-87
2023/12/17 17:59:09;;;;;;;19.38;8.80;;;8.10;1.00;;;;;;20895174;28;20053;-86
2023/12/17 18:09:14;;;;;;;18.58;8.65;;;8.00;1.00;;;;;;20904183;28;20069;-88
2023/12/17 18:19:15;;;;;;;25.35;9.82;;;8.00;1.00;;;;;;20948011;28;20041;-87
2023/12/17 18:29:16;;;;;;;30.38;13.90;;;7.80;1.00;;;;;;20940591;28;20416;-85
2023/12/17 18:39:16;;;;;;;28.10;11.70;;;7.70;1.00;;;;;;20904399;28;20104;-88
2023/12/17 18:49:20;;;;;;;24.00;11.35;;;7.70;1.00;;;;;;20943501;28;20048;-87
2023/12/17 18:59:20;;;;;;;25.40;11.13;;;7.70;1.00;;;;;;20926172;28;20072;-89
2023/12/17 19:09:21;;;;;;;25.73;11.77;;;7.60;1.00;;;;;;20944091;28;20063;-88
2023/12/17 19:19:22;;;;;;;22.50;11.80;;;7.60;1.00;;;;;;20959497;28;20047;-87
2023/12/17 19:29:23;;;;;;;23.92;12.30;;;7.50;1.00;;;;;;20936969;28;20036;-88
2023/12/17 19:39:24;;;;;;;28.95;15.07;;;7.40;1.00;;;;;;20940975;28;20458;-90
2023/12/17 19:49:25;;;;;;;28.77;12.85;;;7.40;1.00;;;;;;20928606;28;20623;-87
2023/12/17 19:59:25;;;;;;;23.20;12.73;;;7.30;1.00;;;;;;20893390;28;20036;-87
2023/12/17 20:09:26;;;;;;;24.63;13.70;;;7.20;1.00;;;;;;20925374;28;20238;-86
2023/12/17 20:19:30;;;;;;;27.73;13.45;;;7.30;1.00;;;;;;20922116;28;20131;-87
2023/12/17 20:29:32;;;;;;;26.90;14.00;;;7.40;1.00;;;;;;20930697;28;20495;-87
2023/12/17 20:39:37;;;;;;;26.00;13.82;;;7.50;1.00;;;;;;20944969;28;20044;-86
2023/12/17 20:49:37;;;;;;;24.23;14.60;;;7.60;1.00;;;;;;20959938;28;20153;-86
2023/12/17 20:59:38;;;;;;;24.50;13.60;;;7.60;1.00;;;;;;20965456;28;20062;-87
2023/12/17 21:09:39;;;;;;;25.33;13.77;;;7.60;1.00;;;;;;20955229;28;20035;-86
2023/12/17 21:19:40;;;;;;;30.20;14.90;;;7.50;2.70;;;;;;20953433;28;20044;-88
2023/12/17 21:29:40;;;;;;;26.58;14.05;;;7.60;4.40;;;;;;20953867;28;20067;-88
2023/12/17 21:39:41;;;;;;;33.97;14.38;;;7.60;5.70;;;;;;20956529;28;20049;-88
2023/12/17 21:49:43;;;;;;;27.75;14.10;;;7.70;7.40;;;;;;20968025;28;20123;-88
2023/12/17 21:59:43;;;;;;;29.00;15.45;;;7.60;14.60;;;;;;20959734;28;20115;-90
2023/12/17 22:09:44;;;;;;;25.63;13.82;;;7.70;14.70;;;;;;20960088;28;20107;-88
2023/12/17 22:19:45;;;;;;;35.00;15.32;;;7.70;18.20;;;;;;20954147;28;20163;-91
2023/12/17 22:29:46;;;;;;;29.30;14.50;;;7.80;17.50;;;;;;20955203;28;20040;-87
2023/12/17 22:39:47;;;;;;;31.08;14.85;;;7.80;20.90;;;;;;20959204;28;20036;-87
2023/12/17 22:49:48;;;;;;;29.10;14.57;;;7.90;24.60;;;;;;20952667;28;20122;-87
2023/12/17 22:59:49;;;;;;;26.98;15.40;;;8.00;24.70;;;;;;20937311;28;20056;-88
2023/12/17 23:09:50;;;;;;;27.05;14.85;;;8.00;25.80;;;;;;20932926;28;20055;-87
2023/12/17 23:19:50;;;;;;;27.08;13.75;;;8.00;23.40;;;;;;20928423;28;20076;-86
2023/12/17 23:29:51;;;;;;;27.73;14.10;;;7.90;25.10;;;;;;20950869;28;20068;-88
2023/12/17 23:39:51;;;;;;;25.80;14.17;;;8.00;22.40;;;;;;20927123;28;20408;-88
2023/12/17 23:49:52;;;;;;;24.77;14.80;;;7.90;28.70;;;;;;20932137;28;20477;-85
2023/12/17 23:59:53;;;;;;;29.58;14.48;;;8.00;25.60;;;;;;20947175;28;20139;-88
